createdAt,value
2023-01-15T00:02:01.227Z,54.67
2023-01-15T00:04:53.140Z,49.00
2023-01-15T00:27:46.072Z,46.00
2023-01-15T00:30:50.809Z,46.67
2023-01-15T00:33:37.467Z,47.00
2023-01-15T00:36:16.433Z,48.67
2023-01-15T00:42:05.129Z,41.67
2023-01-15T00:44:40.504Z,47.00
2023-01-15T00:47:19.322Z,49.00
2023-01-15T00:50:08.077Z,47.33
2023-01-15T00:52:45.321Z,44.67
2023-01-15T00:55:29.917Z,44.33
2023-01-15T01:04:29.019Z,43.00
2023-01-15T01:07:04.208Z,43.67
2023-01-15T01:09:36.917Z,40.67
2023-01-15T01:12:16.648Z,41.33
2023-01-15T01:14:50.397Z,44.00
2023-01-15T01:20:31.378Z,44.67
2023-01-15T01:23:07.417Z,36.67
2023-01-15T01:25:51.739Z,43.67
2023-01-15T01:34:36.965Z,43.67
2023-01-15T01:40:32.131Z,36.67
2023-01-15T01:49:31.398Z,44.33
2023-01-15T01:52:33.559Z,44.33
2023-01-15T01:55:18.957Z,36.33
2023-01-15T01:58:03.275Z,29.00
2023-01-15T02:06:46.198Z,42.67
2023-01-15T02:16:24.596Z,61.67
2023-01-15T02:19:32.989Z,51.00
2023-01-15T02:22:43.258Z,44.00
2023-01-15T02:25:36.394Z,44.67
2023-01-15T02:28:27.129Z,41.00
2023-01-15T02:31:12.779Z,40.33
2023-01-15T02:37:29.150Z,40.00
2023-01-15T02:40:05.702Z,43.00
2023-01-15T02:42:46.119Z,38.67
2023-01-15T02:45:38.052Z,44.33
2023-01-15T02:48:26.597Z,38.00
2023-01-15T02:51:11.114Z,43.00
2023-01-15T02:56:38.240Z,45.67
2023-01-15T02:59:15.240Z,43.33
2023-01-15T03:01:57.308Z,45.00
2023-01-15T03:11:04.915Z,46.33
2023-01-15T03:17:29.866Z,41.67
2023-01-15T03:20:32.117Z,40.00
2023-01-15T03:29:39.051Z,40.00
2023-01-15T03:32:32.130Z,38.33
2023-01-15T03:36:02.078Z,43.00
2023-01-15T03:38:42.139Z,47.00
2023-01-15T03:41:36.143Z,39.67
2023-01-15T03:44:41.403Z,43.33
2023-01-15T03:47:44.437Z,42.67
2023-01-15T03:50:46.708Z,45.00
2023-01-15T03:53:26.368Z,43.00
2023-01-15T03:56:43.279Z,44.00
2023-01-15T03:59:17.173Z,40.33
2023-01-15T04:01:57.227Z,42.67
2023-01-15T04:04:31.247Z,44.00
2023-01-15T04:07:24.812Z,42.33
2023-01-15T04:09:58.237Z,42.67
2023-01-15T04:12:35.391Z,42.67
2023-01-15T04:18:29.280Z,33.67
2023-01-15T04:27:08.925Z,39.00
2023-01-15T04:32:38.959Z,34.33
2023-01-15T04:35:29.601Z,39.00
2023-01-15T04:38:22.546Z,38.33
2023-01-15T04:41:17.421Z,45.00
2023-01-15T04:44:06.852Z,33.33
2023-01-15T04:46:47.009Z,32.67
2023-01-15T04:49:18.027Z,35.67
2023-01-15T04:51:57.177Z,13.33
2023-01-15T04:54:28.735Z,40.00
2023-01-15T04:56:58.667Z,34.33
2023-01-15T04:59:30.427Z,36.67
2023-01-15T05:02:08.499Z,41.00
2023-01-15T05:07:28.214Z,39.00
2023-01-15T05:13:13.453Z,41.00
2023-01-15T05:16:00.328Z,41.67
2023-01-15T05:18:51.901Z,35.67
2023-01-15T05:21:25.146Z,34.33
2023-01-15T05:23:58.026Z,31.33
2023-01-15T05:26:36.240Z,45.00
2023-01-15T05:29:09.513Z,39.33
2023-01-15T05:31:41.523Z,41.00
2023-01-15T05:34:11.986Z,40.00
2023-01-15T05:36:41.613Z,34.33
2023-01-15T05:39:20.135Z,34.00
2023-01-15T05:41:51.868Z,34.33
2023-01-15T05:44:36.419Z,41.33
2023-01-15T06:13:17.498Z,41.67
2023-01-15T06:16:11.514Z,37.67
2023-01-15T06:21:43.834Z,31.00
2023-01-15T06:27:15.082Z,42.00
2023-01-15T06:29:45.207Z,39.33
2023-01-15T06:47:19.388Z,38.67
2023-01-15T06:49:59.117Z,42.67
2023-01-15T06:53:05.105Z,41.33
2023-01-15T07:08:18.924Z,51.00
2023-01-15T11:19:40.766Z,38.67
2023-01-15T11:22:19.640Z,41.00
2023-01-15T11:24:58.037Z,44.00
2023-01-15T11:27:30.982Z,43.00
2023-01-15T11:30:07.815Z,44.33
2023-01-15T11:32:41.359Z,42.00
2023-01-15T11:35:20.562Z,46.33
2023-01-15T11:38:12.544Z,36.33
2023-01-15T11:41:02.766Z,39.25
2023-01-15T11:43:51.341Z,41.00
2023-01-15T11:46:56.700Z,40.25
2023-01-15T11:49:48.876Z,50.33
2023-01-15T11:52:21.180Z,37.25
2023-01-15T11:54:54.255Z,47.00
2023-01-15T11:57:33.970Z,40.50
2023-01-15T12:00:04.774Z,47.33
2023-01-15T12:02:51.044Z,41.67
2023-01-15T12:05:25.485Z,45.33
2023-01-15T12:07:59.282Z,46.00
2023-01-15T12:11:17.170Z,43.67
2023-01-15T12:14:31.697Z,45.67
2023-01-15T12:17:20.849Z,52.00
2023-01-15T12:20:14.760Z,43.25
2023-01-15T12:23:15.314Z,45.67
2023-01-15T12:26:23.373Z,47.33
2023-01-15T12:29:02.431Z,45.00
2023-01-15T12:31:41.817Z,42.33
2023-01-15T12:34:27.638Z,66.67
2023-01-15T12:37:40.070Z,56.33
2023-01-15T12:40:27.032Z,45.67
2023-01-15T12:43:37.165Z,46.67
2023-01-15T12:46:11.479Z,46.00
2023-01-15T12:48:59.859Z,43.50
2023-01-15T12:51:54.674Z,46.00
2023-01-15T12:54:47.293Z,45.33
2023-01-15T12:57:46.260Z,45.00
2023-01-15T13:00:45.533Z,43.00
2023-01-15T13:03:41.132Z,47.67
2023-01-15T13:06:15.423Z,46.00
2023-01-15T13:09:21.607Z,53.00
2023-01-15T13:11:54.798Z,47.00
2023-01-15T13:14:24.829Z,47.33
2023-01-15T13:17:06.847Z,46.33
2023-01-15T13:20:11.535Z,44.00
2023-01-15T13:23:28.086Z,44.33
2023-01-15T13:26:24.561Z,45.00
2023-01-15T13:29:28.991Z,56.00
2023-01-15T13:32:26.810Z,37.67
2023-01-15T13:35:06.507Z,49.33
2023-01-15T13:37:52.649Z,50.00
2023-01-15T13:40:37.619Z,48.00
2023-01-15T13:43:09.790Z,53.33
2023-01-15T13:45:44.658Z,45.33
2023-01-15T13:48:31.421Z,52.00
2023-01-15T13:51:03.180Z,48.67
2023-01-15T13:53:38.492Z,54.00
2023-01-15T13:56:12.620Z,50.67
2023-01-15T13:59:05.701Z,51.67
2023-01-15T14:01:37.368Z,48.67
2023-01-15T14:04:12.564Z,57.00
2023-01-15T14:06:46.576Z,54.33
2023-01-15T14:09:21.122Z,53.33
2023-01-15T14:12:16.789Z,55.67
2023-01-15T14:15:31.232Z,58.00
2023-01-15T14:18:20.749Z,55.00
2023-01-15T14:21:26.202Z,46.33
2023-01-15T14:24:34.137Z,54.33
2023-01-15T14:27:18.901Z,50.00
2023-01-15T14:30:20.056Z,53.33
2023-01-15T14:33:06.174Z,55.33
2023-01-15T14:35:46.561Z,54.00
2023-01-15T14:38:20.506Z,53.00
2023-01-15T14:41:03.468Z,50.00
2023-01-15T14:43:36.275Z,55.67
2023-01-15T14:46:35.968Z,53.00
2023-01-15T14:49:28.636Z,56.33
2023-01-15T14:52:00.813Z,60.00
2023-01-15T14:54:29.682Z,55.67
2023-01-15T14:57:01.910Z,59.00
2023-01-15T14:59:56.066Z,50.33
2023-01-15T15:02:40.255Z,58.67
2023-01-15T15:05:17.310Z,60.00
2023-01-15T15:08:00.893Z,50.67
2023-01-15T15:10:40.776Z,61.00
2023-01-15T15:13:21.278Z,59.33
2023-01-15T15:16:02.430Z,57.33
2023-01-15T15:19:05.844Z,54.00
2023-01-15T15:21:40.954Z,57.67
2023-01-15T15:24:49.206Z,53.00
2023-01-15T15:27:41.840Z,55.00
2023-01-15T15:30:33.025Z,54.00
2023-01-15T15:33:22.521Z,58.00
2023-01-15T15:35:57.809Z,51.00
2023-01-15T15:41:15.103Z,52.33
2023-01-15T15:44:13.606Z,48.67
2023-01-15T15:47:11.111Z,55.33
2023-01-15T15:49:52.321Z,56.00
2023-01-15T15:52:27.290Z,54.00
2023-01-15T15:55:07.831Z,51.00
2023-01-15T15:57:38.893Z,54.00
2023-01-15T16:00:22.064Z,44.33
2023-01-15T16:03:24.812Z,52.00
2023-01-15T16:06:13.306Z,47.33
2023-01-15T16:08:54.469Z,47.00
2023-01-15T16:17:29.069Z,52.67
2023-01-15T19:49:23.042Z,54.67
2023-01-15T19:52:24.520Z,57.00
2023-01-15T20:16:50.623Z,49.33
2023-01-15T21:02:22.868Z,58.33
2023-01-15T21:04:51.649Z,47.00
2023-01-15T21:07:19.813Z,57.00
2023-01-15T21:09:48.069Z,55.67
2023-01-15T21:12:20.373Z,55.33
2023-01-15T21:14:49.613Z,58.00
2023-01-15T21:17:18.951Z,57.33
2023-01-15T21:19:46.881Z,55.00
2023-01-15T21:22:15.483Z,54.67
2023-01-15T21:24:43.963Z,59.00
2023-01-15T21:27:11.905Z,53.00
2023-01-15T21:29:42.600Z,54.33
2023-01-15T21:32:10.472Z,62.33
2023-01-15T21:34:42.657Z,56.00
2023-01-15T21:37:10.832Z,49.67
2023-01-15T21:39:42.322Z,50.00
2023-01-15T21:42:41.726Z,49.00
2023-01-15T21:45:14.074Z,45.33
2023-01-15T21:47:44.865Z,60.00
2023-01-15T21:50:25.875Z,48.00
2023-01-15T21:52:55.218Z,50.67
2023-01-15T21:55:24.392Z,43.33
2023-01-15T21:57:57.580Z,46.67
2023-01-15T22:00:26.617Z,48.33
2023-01-15T22:02:57.147Z,45.00
2023-01-15T22:05:28.844Z,48.33
2023-01-15T22:07:59.052Z,47.00
2023-01-15T22:10:28.823Z,42.67
2023-01-15T22:12:59.281Z,44.50
2023-01-15T22:15:28.903Z,42.00
2023-01-15T22:17:59.725Z,43.33
2023-01-15T22:20:29.815Z,40.67
2023-01-15T22:22:59.687Z,45.33
2023-01-15T22:25:28.897Z,43.75
2023-01-15T22:27:58.886Z,44.00
2023-01-15T22:30:26.695Z,43.67
2023-01-15T22:33:03.225Z,44.00
2023-01-15T22:35:31.982Z,46.67
2023-01-15T22:38:02.116Z,41.67
2023-01-15T22:40:38.031Z,47.33
2023-01-15T22:43:10.060Z,42.33
2023-01-15T22:45:41.845Z,50.33
2023-01-15T22:48:11.775Z,44.00
2023-01-15T22:50:47.928Z,43.33
2023-01-15T22:53:17.416Z,46.67
2023-01-15T22:55:59.485Z,44.33
2023-01-15T22:58:34.663Z,44.33
2023-01-15T23:01:06.379Z,47.67
2023-01-15T23:03:37.749Z,51.67
2023-01-15T23:06:18.368Z,45.67
2023-01-15T23:08:49.577Z,46.67
2023-01-15T23:11:18.818Z,41.67
2023-01-15T23:13:50.861Z,40.67
2023-01-15T23:16:20.664Z,48.33
2023-01-15T23:18:49.754Z,43.00
2023-01-15T23:21:22.744Z,42.00
2023-01-15T23:24:03.653Z,43.00
2023-01-15T23:26:35.127Z,43.67
2023-01-15T23:29:05.156Z,42.33
2023-01-15T23:31:35.427Z,49.67
2023-01-15T23:34:05.948Z,48.00
2023-01-15T23:36:35.430Z,44.00
2023-01-15T23:39:05.299Z,49.00
2023-01-15T23:41:57.530Z,47.67
2023-01-15T23:44:45.339Z,38.00
2023-01-15T23:47:14.598Z,48.00
2023-01-15T23:49:47.066Z,47.67
2023-01-15T23:52:16.605Z,53.00
2023-01-15T23:54:44.771Z,48.00
2023-01-15T23:57:13.381Z,41.33
2023-01-15T23:59:45.762Z,51.67
